メインページ
METAR-TAF:

METAR-TAF

空港 :

キャンベルタウン, スコットランド

緯度: 55-26-14N, 経度: 005-41-11W, 海抜: 13m

現時点の気象観測

当レポートは1時間20分前の15:50(UTC)に作成
南/南西の風 17kt
気温 13°C
湿度 82%
気圧 1025 hPa
視程10km以上
高度3000ftの雲は散在している
高度3700ftの雲は散在している

METAR: EGEC 251550Z 20017KT 9999 SCT030 SCT037 13/10 Q1025

時間: 18:10 (17:10 UTC)

予報

当レポートは3時間10分前の14:00(UTC)に作成
予報は25日の 15時(UTC)から 25日の 17時(UTC)まで有効
の風 10kt
視程10km以上
高度2000ftの雲は散在している
25日の 15時(UTC)から 25日の 17時(UTC)まで一時的に
南/南西の風 20kt、最大30ktの突風を伴う
視程: 6000m
高度1400ftの千切れ雲あり

TAF: EGEC 251400Z 2515/2517 18010KT 9999 SCT020 TEMPO 2515/2517 20020G30KT 6000 RA BKN014

4,000以上の空港の気象観測と天気予報(METAR報とTAF報)

利用可能な観測所は地図上に黄色い丸と赤い丸で示す。

丸の上にカーソルを重ねると観測所名を参照できる。

次にクリックすると気象観測と天気予報を参照できる。

マップの切り替え:黒色「×」印の緑ボタンをクリックして拡大、「-」印の緑ボタンをクリックして縮小、緑色の三角印をクリックして隣りの地図に切り替え


METAR-TAF: